createdAt,value
2019-06-20T00:02:04.869Z,5.10
2019-06-20T00:04:33.135Z,4.87
2019-06-20T00:07:01.482Z,4.50
2019-06-20T00:09:29.717Z,4.57
2019-06-20T00:11:57.957Z,4.80
2019-06-20T00:14:26.240Z,4.93
2019-06-20T00:16:54.546Z,3.50
2019-06-20T00:19:22.844Z,5.33
2019-06-20T00:21:51.177Z,4.63
2019-06-20T00:24:19.431Z,3.93
2019-06-20T00:26:47.688Z,4.07
2019-06-20T00:29:15.955Z,4.57
2019-06-20T00:31:44.246Z,4.73
2019-06-20T00:34:12.560Z,5.07
2019-06-20T00:36:40.822Z,4.33
2019-06-20T00:39:09.101Z,4.27
2019-06-20T00:41:37.437Z,4.53
2019-06-20T00:44:05.819Z,4.83
2019-06-20T00:46:34.055Z,4.27
2019-06-20T00:49:02.335Z,3.90
2019-06-20T00:51:30.595Z,4.03
2019-06-20T00:53:58.827Z,3.70
2019-06-20T00:56:27.115Z,3.60
2019-06-20T00:58:55.363Z,3.80
2019-06-20T01:01:23.631Z,3.97
2019-06-20T01:03:52.562Z,3.43
2019-06-20T01:06:20.852Z,3.50
2019-06-20T01:08:49.125Z,3.50
2019-06-20T01:11:17.398Z,4.00
2019-06-20T01:13:45.697Z,3.20
2019-06-20T01:16:13.965Z,3.10
2019-06-20T01:18:42.271Z,2.47
2019-06-20T01:21:10.542Z,2.73
2019-06-20T01:23:38.829Z,2.70
2019-06-20T01:26:07.184Z,2.80
2019-06-20T01:28:35.447Z,3.30
2019-06-20T01:31:03.703Z,2.47
2019-06-20T01:33:32.001Z,2.93
2019-06-20T01:36:00.260Z,3.07
2019-06-20T01:38:28.500Z,2.57
2019-06-20T01:40:56.799Z,2.03
2019-06-20T01:43:25.106Z,2.73
2019-06-20T01:45:53.377Z,2.70
2019-06-20T01:48:21.679Z,2.60
2019-06-20T01:50:49.912Z,3.03
2019-06-20T01:53:18.237Z,1.80
2019-06-20T01:55:46.508Z,2.87
2019-06-20T01:58:14.812Z,2.27
2019-06-20T02:00:45.407Z,2.50
2019-06-20T02:03:14.470Z,2.60
2019-06-20T02:05:42.925Z,2.90
2019-06-20T02:08:11.456Z,2.80
2019-06-20T02:10:39.972Z,2.20
2019-06-20T02:13:08.209Z,2.87
2019-06-20T02:15:36.498Z,2.67
2019-06-20T02:18:04.775Z,2.80
2019-06-20T02:20:50.720Z,1.70
2019-06-20T02:23:19.033Z,2.30
2019-06-20T02:25:47.313Z,1.90
2019-06-20T02:28:15.789Z,2.80
2019-06-20T02:30:44.014Z,2.67
2019-06-20T02:33:12.297Z,2.10
2019-06-20T02:35:40.586Z,2.23
2019-06-20T02:38:08.925Z,1.50
2019-06-20T02:40:37.750Z,2.60
2019-06-20T02:43:05.980Z,2.27
2019-06-20T02:45:35.034Z,2.13
2019-06-20T02:48:03.331Z,1.90
2019-06-20T02:50:31.620Z,2.03
2019-06-20T02:53:00.005Z,2.70
2019-06-20T02:55:28.321Z,2.63
2019-06-20T02:57:56.632Z,2.03
2019-06-20T03:00:34.078Z,2.53
2019-06-20T03:03:02.461Z,2.20
2019-06-20T03:05:30.739Z,2.70
2019-06-20T03:07:58.973Z,2.50
2019-06-20T03:10:27.342Z,2.00
2019-06-20T03:12:55.579Z,2.17
2019-06-20T03:15:23.897Z,2.60
2019-06-20T03:17:52.294Z,3.50
2019-06-20T03:20:20.518Z,2.00
2019-06-20T03:22:48.796Z,2.23
2019-06-20T03:25:17.990Z,2.80
2019-06-20T03:27:46.386Z,2.10
2019-06-20T03:30:14.652Z,2.90
2019-06-20T03:32:42.958Z,1.90
2019-06-20T03:35:11.243Z,2.20
2019-06-20T03:37:39.631Z,2.87
2019-06-20T03:40:08.027Z,2.33
2019-06-20T03:42:36.255Z,2.30
2019-06-20T03:45:06.094Z,2.40
2019-06-20T03:47:34.400Z,2.20
2019-06-20T03:50:03.269Z,2.90
2019-06-20T03:52:31.585Z,2.87
2019-06-20T03:54:59.857Z,2.50
2019-06-20T03:57:28.141Z,2.27
2019-06-20T03:59:56.389Z,2.70
2019-06-20T04:02:24.724Z,3.00
2019-06-20T04:04:52.988Z,2.57
2019-06-20T04:07:21.523Z,2.83
2019-06-20T04:09:49.785Z,2.07
2019-06-20T04:12:18.067Z,2.43
2019-06-20T04:14:48.959Z,2.10
2019-06-20T04:17:16.401Z,1.53
2019-06-20T04:19:44.657Z,3.10
2019-06-20T04:22:13.046Z,3.40
2019-06-20T04:24:41.497Z,2.60
2019-06-20T04:27:09.745Z,2.80
2019-06-20T04:29:38.056Z,2.43
2019-06-20T04:32:06.548Z,2.57
2019-06-20T04:34:34.931Z,3.17
2019-06-20T04:37:03.217Z,3.00
2019-06-20T04:39:31.472Z,2.97
2019-06-20T04:41:59.751Z,2.83
2019-06-20T04:44:27.988Z,2.70
2019-06-20T04:47:00.512Z,2.77
2019-06-20T04:49:28.825Z,3.10
2019-06-20T04:51:57.100Z,1.90
2019-06-20T04:54:25.370Z,2.10
2019-06-20T04:56:53.636Z,2.50
2019-06-20T04:59:21.904Z,2.60
2019-06-20T05:01:50.212Z,3.10
2019-06-20T05:04:18.530Z,3.40
2019-06-20T05:06:48.233Z,3.20
2019-06-20T05:09:16.592Z,2.43
2019-06-20T05:11:44.815Z,2.50
2019-06-20T05:14:13.095Z,3.17
2019-06-20T05:16:41.352Z,1.93
2019-06-20T05:19:09.642Z,3.30
2019-06-20T05:21:37.915Z,2.47
2019-06-20T05:24:06.202Z,4.23
2019-06-20T05:26:34.486Z,2.80
2019-06-20T05:29:05.402Z,2.90
2019-06-20T05:31:32.746Z,3.10
2019-06-20T05:34:01.048Z,2.80
2019-06-20T05:36:29.322Z,2.87
2019-06-20T05:38:58.633Z,2.53
2019-06-20T05:41:26.892Z,3.50
2019-06-20T05:43:55.175Z,3.90
2019-06-20T05:46:23.408Z,2.93
2019-06-20T05:48:51.679Z,2.17
2019-06-20T05:51:20.031Z,2.50
2019-06-20T05:53:48.303Z,2.37
2019-06-20T05:56:16.605Z,2.47
2019-06-20T05:58:44.838Z,2.00
2019-06-20T06:01:13.129Z,2.00
2019-06-20T06:03:41.398Z,2.30
2019-06-20T06:06:09.693Z,3.63
2019-06-20T06:08:38.021Z,3.00
2019-06-20T06:11:07.007Z,2.60
2019-06-20T06:13:35.259Z,2.40
2019-06-20T06:16:03.548Z,2.17
2019-06-20T06:18:31.864Z,3.08
2019-06-20T06:21:00.152Z,2.33
2019-06-20T06:23:28.411Z,2.57
2019-06-20T06:25:57.686Z,2.33
2019-06-20T06:28:25.919Z,2.10
2019-06-20T06:30:54.197Z,1.90
2019-06-20T06:33:22.558Z,1.67
2019-06-20T06:35:50.823Z,1.90
2019-06-20T06:38:21.850Z,1.70
2019-06-20T06:40:49.156Z,1.93
2019-06-20T06:43:17.463Z,1.27
2019-06-20T06:45:45.711Z,1.40
2019-06-20T06:48:13.985Z,1.67
2019-06-20T06:50:42.253Z,1.67
2019-06-20T06:53:10.559Z,1.17
2019-06-20T06:55:38.808Z,1.60
2019-06-20T06:58:07.070Z,1.67
2019-06-20T07:00:35.403Z,1.20
2019-06-20T07:03:04.079Z,1.63
2019-06-20T07:05:32.354Z,1.50
2019-06-20T07:08:00.698Z,1.60
2019-06-20T07:10:28.970Z,2.00
2019-06-20T07:12:57.339Z,2.13
2019-06-20T07:15:25.901Z,1.90
2019-06-20T07:17:54.147Z,1.67
2019-06-20T07:20:22.424Z,1.10
2019-06-20T07:22:50.684Z,1.93
2019-06-20T07:25:18.979Z,2.47
2019-06-20T07:27:47.226Z,2.27
2019-06-20T07:30:15.554Z,1.40
2019-06-20T07:32:43.857Z,1.40
2019-06-20T07:35:12.837Z,1.60
2019-06-20T07:37:41.120Z,2.10
2019-06-20T07:40:09.537Z,1.30
2019-06-20T07:42:37.900Z,10.30
2019-06-20T07:45:09.459Z,4.40
2019-06-20T07:47:37.806Z,3.50
2019-06-20T07:50:07.902Z,3.60
2019-06-20T07:52:36.247Z,3.70
2019-06-20T07:55:08.591Z,3.40
2019-06-20T07:57:36.845Z,3.00
2019-06-20T08:00:09.015Z,2.40
2019-06-20T08:02:37.287Z,2.60
2019-06-20T08:05:06.508Z,2.17
2019-06-20T08:07:35.778Z,2.13
2019-06-20T08:10:07.342Z,1.73
2019-06-20T08:12:35.711Z,2.10
2019-06-20T08:15:15.048Z,2.07
2019-06-20T08:17:36.082Z,1.80
2019-06-20T08:20:05.899Z,1.70
2019-06-20T08:22:34.204Z,1.70
2019-06-20T08:25:03.320Z,1.70
2019-06-20T08:27:51.375Z,2.27
2019-06-20T08:30:29.983Z,3.27
2019-06-20T08:33:01.258Z,2.17
2019-06-20T08:35:29.470Z,2.60
2019-06-20T08:37:59.363Z,2.97
2019-06-20T08:40:29.254Z,2.03
2019-06-20T08:42:58.871Z,1.93
2019-06-20T08:45:28.920Z,2.40
2019-06-20T08:47:58.294Z,2.00
2019-06-20T08:50:26.697Z,2.20
2019-06-20T08:52:56.153Z,1.80
2019-06-20T08:55:24.966Z,2.47
2019-06-20T08:57:55.639Z,1.70
2019-06-20T09:00:23.535Z,1.10
2019-06-20T09:02:51.805Z,1.70
2019-06-20T09:05:20.157Z,1.53
2019-06-20T09:07:48.442Z,1.50
2019-06-20T09:10:16.752Z,1.40
2019-06-20T09:12:45.282Z,1.33
2019-06-20T09:15:13.567Z,1.40
2019-06-20T09:17:41.818Z,1.10
2019-06-20T09:20:11.728Z,1.47
2019-06-20T09:22:39.992Z,1.00
2019-06-20T09:25:08.635Z,1.07
2019-06-20T09:27:37.389Z,1.47
2019-06-20T09:30:09.879Z,1.40
2019-06-20T09:32:38.264Z,1.00
2019-06-20T09:35:09.275Z,1.00
2019-06-20T09:37:37.741Z,1.13
2019-06-20T09:40:07.897Z,0.90
2019-06-20T09:42:36.913Z,1.70
2019-06-20T09:45:10.323Z,1.10
2019-06-20T09:47:38.650Z,1.90
2019-06-20T09:50:10.367Z,1.47
2019-06-20T09:52:39.353Z,2.40
2019-06-20T09:55:07.929Z,1.10
2019-06-20T09:57:36.217Z,1.57
2019-06-20T10:00:11.652Z,1.53
2019-06-20T10:02:40.419Z,1.43
2019-06-20T10:05:09.090Z,1.10
2019-06-20T10:07:37.428Z,1.17
2019-06-20T10:10:10.754Z,0.90
2019-06-20T10:12:39.089Z,1.13
2019-06-20T10:15:16.424Z,1.67
2019-06-20T10:17:45.734Z,1.30
2019-06-20T10:20:14.817Z,1.83
2019-06-20T10:22:44.066Z,1.20
2019-06-20T10:25:13.673Z,1.00
2019-06-20T10:27:42.027Z,1.40
2019-06-20T10:30:14.431Z,1.93
2019-06-20T10:32:40.405Z,1.20
2019-06-20T10:35:08.702Z,1.43
2019-06-20T10:37:37.052Z,1.37
2019-06-20T10:40:08.110Z,1.30
2019-06-20T10:42:36.465Z,1.23
2019-06-20T10:45:06.714Z,1.27
2019-06-20T10:47:36.176Z,1.07
2019-06-20T10:50:09.080Z,1.13
2019-06-20T10:52:37.357Z,1.20
2019-06-20T10:55:08.694Z,0.70
2019-06-20T10:57:37.016Z,1.27
2019-06-20T11:00:12.156Z,1.20
2019-06-20T11:02:41.773Z,1.27
2019-06-20T11:05:10.633Z,1.07
2019-06-20T11:07:40.346Z,1.10
2019-06-20T11:10:10.346Z,1.23
2019-06-20T11:12:45.548Z,1.70
2019-06-20T11:15:09.177Z,1.27
2019-06-20T11:17:38.745Z,1.63
2019-06-20T11:20:08.332Z,1.37
2019-06-20T11:22:38.027Z,1.13
2019-06-20T11:25:07.550Z,1.67
2019-06-20T11:27:37.047Z,1.23
2019-06-20T11:30:15.422Z,0.90
2019-06-20T11:32:43.749Z,1.53
2019-06-20T11:35:12.361Z,1.03
2019-06-20T11:37:42.160Z,1.00
2019-06-20T11:40:10.827Z,1.23
2019-06-20T11:42:39.915Z,0.90
2019-06-20T11:45:08.540Z,1.03
2019-06-20T11:47:38.196Z,1.13
2019-06-20T11:50:06.941Z,0.80
2019-06-20T11:52:42.094Z,1.10
2019-06-20T11:55:10.134Z,1.20
2019-06-20T11:57:38.803Z,1.10
2019-06-20T12:00:07.239Z,0.93
2019-06-20T12:02:35.510Z,0.60
2019-06-20T12:05:08.936Z,0.90
2019-06-20T12:07:39.592Z,1.33
2019-06-20T12:10:08.511Z,3.67
2019-06-20T12:12:39.058Z,2.00
2019-06-20T12:15:07.544Z,1.60
2019-06-20T12:17:35.996Z,2.57
2019-06-20T12:20:07.781Z,4.13
2019-06-20T12:22:36.085Z,3.97
2019-06-20T12:25:06.059Z,4.70
2019-06-20T12:27:34.319Z,4.57
2019-06-20T12:30:02.946Z,4.47
2019-06-20T12:32:31.244Z,5.20
2019-06-20T12:34:59.527Z,4.67
2019-06-20T12:37:27.854Z,4.70
2019-06-20T12:39:56.243Z,5.00
2019-06-20T12:42:24.497Z,3.50
2019-06-20T12:44:52.762Z,4.30
2019-06-20T12:47:21.094Z,3.97
2019-06-20T12:49:50.632Z,3.90
2019-06-20T12:52:19.017Z,4.43
2019-06-20T12:54:47.301Z,3.47
2019-06-20T12:57:15.633Z,3.57
2019-06-20T12:59:44.562Z,3.97
2019-06-20T13:02:12.980Z,3.50
2019-06-20T13:04:41.680Z,3.70
2019-06-20T13:07:10.087Z,2.90
2019-06-20T13:09:39.434Z,3.27
2019-06-20T13:12:08.323Z,3.90
2019-06-20T13:14:36.604Z,2.20
2019-06-20T13:17:04.992Z,3.43
2019-06-20T13:19:33.329Z,3.93
2019-06-20T13:22:01.637Z,2.93
2019-06-20T13:24:29.891Z,3.53
2019-06-20T13:26:58.205Z,1.90
2019-06-20T13:29:26.479Z,2.30
2019-06-20T13:32:04.010Z,2.27
2019-06-20T13:34:24.824Z,1.80
2019-06-20T13:36:53.089Z,2.13
2019-06-20T13:39:21.377Z,1.77
2019-06-20T13:41:51.336Z,2.20
2019-06-20T13:44:19.639Z,1.33
2019-06-20T13:46:48.969Z,2.10
2019-06-20T13:49:17.412Z,1.47
2019-06-20T13:51:45.880Z,1.50
2019-06-20T13:54:14.252Z,1.63
2019-06-20T13:56:43.598Z,1.67
2019-06-20T13:59:11.997Z,1.60
2019-06-20T14:01:41.925Z,1.00
2019-06-20T14:04:10.291Z,1.50
2019-06-20T14:06:38.536Z,1.50
2019-06-20T14:09:07.327Z,1.90
2019-06-20T14:11:35.684Z,1.67
2019-06-20T14:14:04.067Z,1.10
2019-06-20T14:16:32.394Z,1.10
2019-06-20T14:19:01.687Z,2.03
2019-06-20T14:21:30.096Z,1.13
2019-06-20T14:23:58.391Z,1.53
2019-06-20T14:26:26.642Z,1.33
2019-06-20T14:28:55.732Z,1.57
2019-06-20T14:31:24.075Z,1.63
2019-06-20T14:33:52.357Z,1.10
2019-06-20T14:36:20.601Z,1.30
2019-06-20T14:38:49.492Z,1.70
2019-06-20T14:41:17.942Z,1.20
2019-06-20T14:43:47.547Z,1.37
2019-06-20T14:46:16.181Z,1.20
2019-06-20T14:48:45.474Z,1.73
2019-06-20T14:51:14.646Z,1.63
2019-06-20T14:53:44.430Z,1.30
2019-06-20T14:56:12.970Z,1.20
2019-06-20T14:58:41.229Z,1.40
2019-06-20T15:01:09.508Z,1.47
2019-06-20T15:03:37.878Z,2.47
2019-06-20T15:06:06.158Z,1.53
2019-06-20T15:08:34.404Z,1.00
2019-06-20T15:11:02.789Z,1.10
2019-06-20T15:13:31.208Z,1.20
2019-06-20T15:15:59.478Z,1.23
2019-06-20T15:18:27.883Z,0.80
2019-06-20T15:20:59.179Z,0.90
2019-06-20T15:23:26.117Z,1.13
2019-06-20T15:25:54.387Z,1.00
2019-06-20T15:28:22.669Z,0.83
2019-06-20T15:30:50.957Z,0.80
2019-06-20T15:33:19.287Z,0.60
2019-06-20T15:35:49.213Z,1.03
2019-06-20T15:38:17.650Z,1.10
2019-06-20T15:40:47.937Z,0.73
2019-06-20T15:43:15.991Z,1.30
2019-06-20T15:45:44.281Z,0.70
2019-06-20T15:48:12.580Z,1.03
2019-06-20T15:50:40.843Z,0.80
2019-06-20T15:53:09.114Z,1.40
2019-06-20T15:55:37.360Z,1.37
2019-06-20T15:58:05.648Z,0.90
2019-06-20T16:00:33.940Z,1.10
2019-06-20T16:03:09.911Z,0.63
2019-06-20T16:05:32.242Z,1.10
2019-06-20T16:08:02.625Z,0.90
2019-06-20T16:10:32.562Z,1.50
2019-06-20T16:13:00.804Z,1.10
2019-06-20T16:15:29.239Z,0.60
2019-06-20T16:17:57.619Z,1.00
2019-06-20T16:20:25.920Z,1.00
2019-06-20T16:22:54.284Z,1.17
2019-06-20T16:25:22.626Z,1.00
2019-06-20T16:27:50.889Z,0.70
2019-06-20T16:30:19.243Z,1.10
2019-06-20T16:32:47.563Z,0.80
2019-06-20T16:35:15.855Z,0.73
2019-06-20T16:37:44.184Z,0.70
2019-06-20T16:40:12.484Z,0.70
2019-06-20T16:42:40.747Z,0.70
2019-06-20T16:45:09.167Z,1.03
2019-06-20T16:47:37.686Z,0.93
2019-06-20T16:50:07.788Z,0.60
2019-06-20T16:52:36.061Z,0.60
2019-06-20T16:55:05.613Z,0.73
2019-06-20T16:57:33.841Z,0.90
2019-06-20T17:00:02.393Z,1.13
2019-06-20T17:02:30.699Z,1.20
2019-06-20T17:04:58.956Z,0.60
2019-06-20T17:07:28.046Z,0.70
2019-06-20T17:09:56.385Z,0.80
2019-06-20T17:12:24.663Z,0.80
2019-06-20T17:14:52.953Z,0.80
2019-06-20T17:17:21.217Z,0.77
2019-06-20T17:19:49.552Z,0.90
2019-06-20T17:22:17.856Z,1.17
2019-06-20T17:24:46.122Z,0.60
2019-06-20T17:27:14.367Z,0.90
2019-06-20T17:29:42.678Z,0.70
2019-06-20T17:32:10.933Z,0.70
2019-06-20T17:34:39.212Z,0.90
2019-06-20T17:37:07.487Z,0.60
2019-06-20T17:39:35.777Z,0.63
2019-06-20T17:42:04.011Z,0.70
2019-06-20T17:44:32.284Z,0.70
2019-06-20T17:47:00.556Z,1.03
2019-06-20T17:49:28.866Z,0.80
2019-06-20T17:51:57.124Z,0.57
2019-06-20T17:54:25.428Z,0.83
2019-06-20T17:56:53.768Z,0.90
2019-06-20T17:59:22.917Z,0.90
2019-06-20T18:01:51.407Z,0.77
2019-06-20T18:04:19.680Z,0.50
2019-06-20T18:06:48.006Z,0.90
2019-06-20T18:09:16.303Z,0.60
2019-06-20T18:11:44.538Z,0.70
2019-06-20T18:14:12.840Z,0.83
2019-06-20T18:16:41.124Z,0.77
2019-06-20T18:19:09.372Z,0.73
2019-06-20T18:21:37.641Z,1.03
2019-06-20T18:24:05.889Z,0.77
2019-06-20T18:26:34.182Z,1.23
2019-06-20T18:29:02.451Z,0.70
2019-06-20T18:31:30.806Z,0.70
2019-06-20T18:33:59.087Z,0.70
2019-06-20T18:36:27.436Z,0.80
2019-06-20T18:38:55.782Z,0.97
2019-06-20T18:41:24.051Z,0.70
2019-06-20T18:43:52.321Z,0.70
2019-06-20T18:46:20.573Z,0.70
2019-06-20T18:48:48.857Z,0.60
2019-06-20T18:51:17.131Z,0.73
2019-06-20T18:53:45.419Z,0.77
2019-06-20T18:56:13.650Z,0.70
2019-06-20T18:58:42.042Z,0.77
2019-06-20T19:01:10.289Z,0.70
2019-06-20T19:03:38.579Z,0.77
2019-06-20T19:06:06.851Z,0.70
2019-06-20T19:08:35.127Z,0.60
2019-06-20T19:11:03.507Z,0.80
2019-06-20T19:13:51.318Z,0.70
2019-06-20T19:16:19.647Z,1.00
2019-06-20T19:18:47.962Z,0.93
2019-06-20T19:21:16.277Z,0.60
2019-06-20T19:23:44.551Z,1.63
2019-06-20T19:26:12.925Z,1.33
2019-06-20T19:28:41.189Z,1.63
2019-06-20T19:31:09.467Z,1.00
2019-06-20T19:33:37.765Z,1.10
2019-06-20T19:36:06.049Z,1.17
2019-06-20T19:38:34.348Z,1.60
2019-06-20T19:41:02.682Z,0.87
2019-06-20T19:43:30.951Z,1.70
2019-06-20T19:45:59.207Z,1.50
2019-06-20T19:48:27.467Z,1.30
2019-06-20T19:50:55.748Z,1.10
2019-06-20T19:53:24.087Z,1.00
2019-06-20T19:55:52.353Z,1.00
2019-06-20T19:58:20.607Z,1.27
2019-06-20T20:00:48.953Z,1.30
2019-06-20T20:03:17.253Z,1.10
2019-06-20T20:05:45.588Z,1.67
2019-06-20T20:08:13.848Z,1.10
2019-06-20T20:10:46.991Z,0.97
2019-06-20T20:13:15.878Z,0.93
2019-06-20T20:15:45.082Z,1.60
2019-06-20T20:18:13.859Z,0.93
2019-06-20T20:20:43.205Z,1.73
2019-06-20T20:23:11.571Z,1.30
2019-06-20T20:25:39.921Z,1.07
2019-06-20T20:28:08.202Z,1.40
2019-06-20T20:30:36.488Z,1.30
2019-06-20T20:33:05.186Z,1.30
2019-06-20T20:35:35.834Z,1.23
2019-06-20T20:38:03.635Z,1.20
2019-06-20T20:40:31.904Z,0.80
2019-06-20T20:43:00.220Z,1.10
2019-06-20T20:45:28.685Z,0.93
2019-06-20T20:47:56.972Z,0.97
2019-06-20T20:50:25.204Z,1.10
2019-06-20T20:52:53.835Z,0.83
2019-06-20T20:55:22.074Z,0.90
2019-06-20T20:57:50.396Z,1.10
2019-06-20T21:00:27.862Z,1.10
2019-06-20T21:02:56.270Z,1.13
2019-06-20T21:05:24.927Z,1.13
2019-06-20T21:07:53.306Z,1.00
2019-06-20T21:10:21.655Z,1.00
2019-06-20T21:12:49.978Z,0.80
2019-06-20T21:15:18.342Z,0.70
2019-06-20T21:17:46.630Z,1.10
2019-06-20T21:20:15.129Z,0.80
2019-06-20T21:22:43.392Z,1.00
2019-06-20T21:25:11.941Z,0.90
2019-06-20T21:27:40.233Z,0.70
2019-06-20T21:30:08.980Z,0.80
2019-06-20T21:32:37.272Z,1.00
2019-06-20T21:35:06.859Z,0.87
2019-06-20T21:37:35.146Z,0.77
2019-06-20T21:40:04.773Z,1.00
2019-06-20T21:42:33.037Z,0.83
2019-06-20T21:45:01.326Z,0.73
2019-06-20T21:47:29.612Z,0.90
2019-06-20T21:49:57.932Z,1.00
2019-06-20T21:52:26.212Z,1.00
2019-06-20T21:54:54.478Z,1.33
2019-06-20T21:57:22.758Z,1.10
2019-06-20T21:59:51.021Z,0.70
2019-06-20T22:02:19.344Z,1.10
2019-06-20T22:04:54.570Z,0.90
2019-06-20T22:07:17.678Z,0.83
2019-06-20T22:09:45.961Z,1.07
2019-06-20T22:12:14.338Z,1.57
2019-06-20T22:14:42.626Z,1.00
2019-06-20T22:17:10.876Z,0.87
2019-06-20T22:19:39.254Z,0.87
2019-06-20T22:22:07.543Z,1.10
2019-06-20T22:24:35.792Z,0.83
2019-06-20T22:27:04.165Z,0.90
2019-06-20T22:29:32.494Z,1.10
2019-06-20T22:32:00.803Z,1.00
2019-06-20T22:34:29.085Z,0.87
2019-06-20T22:36:57.390Z,0.97
2019-06-20T22:39:25.674Z,1.00
2019-06-20T22:41:53.933Z,0.90
2019-06-20T22:44:22.177Z,0.70
2019-06-20T22:46:50.465Z,0.93
2019-06-20T22:49:18.713Z,0.80
2019-06-20T22:51:46.957Z,1.17
2019-06-20T22:54:15.235Z,1.10
2019-06-20T22:56:43.497Z,0.90
2019-06-20T22:59:11.777Z,1.10
2019-06-20T23:01:40.013Z,0.90
2019-06-20T23:04:08.497Z,1.13
2019-06-20T23:06:36.859Z,1.20
2019-06-20T23:09:06.763Z,0.90
2019-06-20T23:11:35.060Z,0.80
2019-06-20T23:14:03.394Z,1.13
2019-06-20T23:16:31.900Z,0.90
2019-06-20T23:19:00.178Z,1.27
2019-06-20T23:21:28.421Z,0.90
2019-06-20T23:23:56.708Z,0.63
2019-06-20T23:26:24.980Z,0.97
2019-06-20T23:29:11.175Z,0.80
2019-06-20T23:31:39.495Z,1.00
2019-06-20T23:34:07.753Z,0.97
2019-06-20T23:36:36.021Z,0.93
2019-06-20T23:39:05.652Z,0.90
2019-06-20T23:41:33.917Z,0.70
2019-06-20T23:44:02.193Z,0.90
2019-06-20T23:46:30.469Z,1.10
2019-06-20T23:48:58.858Z,1.10
2019-06-20T23:51:28.760Z,1.10
2019-06-20T23:53:57.010Z,0.90
2019-06-20T23:56:25.315Z,1.20
2019-06-20T23:58:53.642Z,0.90
